sensor_id;sensor_type;location;lat;lon;timestamp;P1;durP1;ratioP1;P2;durP2;ratioP2
40459;SDS011;26164;51.138;16.952;2023-03-04T00:00:10;56.83;;;23.85;;
40459;SDS011;26164;51.138;16.952;2023-03-04T00:02:57;66.25;;;23.52;;
40459;SDS011;26164;51.138;16.952;2023-03-04T00:05:22;65.15;;;27.15;;
40459;SDS011;26164;51.138;16.952;2023-03-04T00:07:48;54.55;;;23.67;;
40459;SDS011;26164;51.138;16.952;2023-03-04T00:10:14;59.33;;;24.77;;
40459;SDS011;26164;51.138;16.952;2023-03-04T00:12:40;64.00;;;25.40;;
40459;SDS011;26164;51.138;16.952;2023-03-04T00:15:06;47.60;;;19.88;;
40459;SDS011;26164;51.138;16.952;2023-03-04T00:17:42;52.13;;;21.77;;
40459;SDS011;26164;51.138;16.952;2023-03-04T00:20:10;36.80;;;17.10;;
40459;SDS011;26164;51.138;16.952;2023-03-04T00:22:37;55.30;;;22.67;;
40459;SDS011;26164;51.138;16.952;2023-03-04T00:25:03;49.75;;;20.75;;
40459;SDS011;26164;51.138;16.952;2023-03-04T00:27:29;43.03;;;20.48;;
40459;SDS011;26164;51.138;16.952;2023-03-04T00:29:55;44.08;;;19.60;;
40459;SDS011;26164;51.138;16.952;2023-03-04T00:32:22;51.25;;;20.60;;
40459;SDS011;26164;51.138;16.952;2023-03-04T00:34:48;43.80;;;19.63;;
40459;SDS011;26164;51.138;16.952;2023-03-04T00:37:14;45.97;;;20.15;;
40459;SDS011;26164;51.138;16.952;2023-03-04T00:39:41;44.58;;;19.05;;
40459;SDS011;26164;51.138;16.952;2023-03-04T00:42:07;51.30;;;20.10;;
40459;SDS011;26164;51.138;16.952;2023-03-04T00:44:32;49.45;;;21.45;;
40459;SDS011;26164;51.138;16.952;2023-03-04T00:46:58;42.25;;;18.73;;
40459;SDS011;26164;51.138;16.952;2023-03-04T00:49:24;40.80;;;17.20;;
40459;SDS011;26164;51.138;16.952;2023-03-04T00:51:50;43.88;;;20.13;;
40459;SDS011;26164;51.138;16.952;2023-03-04T00:54:16;53.35;;;23.23;;
40459;SDS011;26164;51.138;16.952;2023-03-04T00:56:43;54.83;;;24.15;;
40459;SDS011;26164;51.138;16.952;2023-03-04T00:59:08;50.60;;;21.23;;
40459;SDS011;26164;51.138;16.952;2023-03-04T01:01:34;59.33;;;25.77;;
40459;SDS011;26164;51.138;16.952;2023-03-04T01:04:00;55.72;;;23.83;;
40459;SDS011;26164;51.138;16.952;2023-03-04T01:06:26;70.32;;;25.92;;
40459;SDS011;26164;51.138;16.952;2023-03-04T01:08:51;46.50;;;20.48;;
40459;SDS011;26164;51.138;16.952;2023-03-04T01:11:18;57.85;;;22.20;;
40459;SDS011;26164;51.138;16.952;2023-03-04T01:13:45;46.80;;;20.80;;
40459;SDS011;26164;51.138;16.952;2023-03-04T01:16:11;55.58;;;20.60;;
40459;SDS011;26164;51.138;16.952;2023-03-04T01:18:37;54.67;;;23.70;;
40459;SDS011;26164;51.138;16.952;2023-03-04T01:21:03;52.95;;;21.40;;
40459;SDS011;26164;51.138;16.952;2023-03-04T01:23:29;46.53;;;20.25;;
40459;SDS011;26164;51.138;16.952;2023-03-04T01:25:55;57.40;;;22.17;;
40459;SDS011;26164;51.138;16.952;2023-03-04T01:28:21;48.00;;;22.50;;
40459;SDS011;26164;51.138;16.952;2023-03-04T01:30:47;49.70;;;21.92;;
40459;SDS011;26164;51.138;16.952;2023-03-04T01:33:12;53.72;;;24.98;;
40459;SDS011;26164;51.138;16.952;2023-03-04T01:35:40;51.40;;;23.48;;
40459;SDS011;26164;51.138;16.952;2023-03-04T01:38:06;55.45;;;25.77;;
40459;SDS011;26164;51.138;16.952;2023-03-04T01:40:31;51.78;;;24.88;;
40459;SDS011;26164;51.138;16.952;2023-03-04T01:42:57;37.05;;;17.60;;
40459;SDS011;26164;51.138;16.952;2023-03-04T01:45:24;43.22;;;22.85;;
40459;SDS011;26164;51.138;16.952;2023-03-04T01:47:50;38.78;;;17.92;;
40459;SDS011;26164;51.138;16.952;2023-03-04T01:50:21;37.65;;;18.60;;
40459;SDS011;26164;51.138;16.952;2023-03-04T01:55:18;34.25;;;18.40;;
40459;SDS011;26164;51.138;16.952;2023-03-04T01:57:47;40.20;;;16.98;;
40459;SDS011;26164;51.138;16.952;2023-03-04T02:02:40;37.22;;;16.33;;
40459;SDS011;26164;51.138;16.952;2023-03-04T02:05:06;36.95;;;17.63;;
40459;SDS011;26164;51.138;16.952;2023-03-04T02:07:32;32.78;;;15.77;;
40459;SDS011;26164;51.138;16.952;2023-03-04T02:09:59;29.23;;;13.98;;
40459;SDS011;26164;51.138;16.952;2023-03-04T02:12:25;39.15;;;16.50;;
40459;SDS011;26164;51.138;16.952;2023-03-04T02:14:51;32.00;;;14.90;;
40459;SDS011;26164;51.138;16.952;2023-03-04T02:17:22;39.72;;;19.35;;
40459;SDS011;26164;51.138;16.952;2023-03-04T02:19:55;35.90;;;20.38;;
40459;SDS011;26164;51.138;16.952;2023-03-04T02:22:22;40.53;;;19.85;;
40459;SDS011;26164;51.138;16.952;2023-03-04T02:24:49;38.20;;;18.13;;
40459;SDS011;26164;51.138;16.952;2023-03-04T02:27:21;34.22;;;15.20;;
40459;SDS011;26164;51.138;16.952;2023-03-04T02:29:48;35.72;;;15.57;;
40459;SDS011;26164;51.138;16.952;2023-03-04T02:32:17;33.20;;;17.52;;
40459;SDS011;26164;51.138;16.952;2023-03-04T02:34:46;34.38;;;15.82;;
40459;SDS011;26164;51.138;16.952;2023-03-04T02:37:14;36.60;;;20.95;;
40459;SDS011;26164;51.138;16.952;2023-03-04T02:39:42;37.80;;;17.30;;
40459;SDS011;26164;51.138;16.952;2023-03-04T02:42:10;38.35;;;17.52;;
40459;SDS011;26164;51.138;16.952;2023-03-04T02:44:38;35.80;;;17.33;;
40459;SDS011;26164;51.138;16.952;2023-03-04T02:47:13;32.20;;;14.90;;
40459;SDS011;26164;51.138;16.952;2023-03-04T02:49:42;29.52;;;13.88;;
40459;SDS011;26164;51.138;16.952;2023-03-04T02:52:19;30.05;;;15.15;;
40459;SDS011;26164;51.138;16.952;2023-03-04T02:54:47;32.90;;;15.23;;
40459;SDS011;26164;51.138;16.952;2023-03-04T02:57:13;26.33;;;12.45;;
40459;SDS011;26164;51.138;16.952;2023-03-04T02:59:43;27.10;;;13.32;;
40459;SDS011;26164;51.138;16.952;2023-03-04T03:02:14;25.50;;;13.75;;
40459;SDS011;26164;51.138;16.952;2023-03-04T03:04:40;27.92;;;13.48;;
40459;SDS011;26164;51.138;16.952;2023-03-04T03:07:10;27.95;;;14.07;;
40459;SDS011;26164;51.138;16.952;2023-03-04T03:09:37;25.60;;;12.70;;
40459;SDS011;26164;51.138;16.952;2023-03-04T03:12:03;32.22;;;15.20;;
40459;SDS011;26164;51.138;16.952;2023-03-04T03:14:30;25.63;;;12.60;;
40459;SDS011;26164;51.138;16.952;2023-03-04T03:16:56;30.58;;;14.32;;
40459;SDS011;26164;51.138;16.952;2023-03-04T03:19:22;31.35;;;14.05;;
40459;SDS011;26164;51.138;16.952;2023-03-04T03:21:49;26.38;;;12.57;;
40459;SDS011;26164;51.138;16.952;2023-03-04T03:24:15;31.13;;;13.15;;
40459;SDS011;26164;51.138;16.952;2023-03-04T03:26:41;32.00;;;14.48;;
40459;SDS011;26164;51.138;16.952;2023-03-04T03:29:07;27.17;;;12.52;;
40459;SDS011;26164;51.138;16.952;2023-03-04T03:31:32;41.55;;;12.48;;
40459;SDS011;26164;51.138;16.952;2023-03-04T03:33:58;31.05;;;14.02;;
40459;SDS011;26164;51.138;16.952;2023-03-04T03:36:25;35.50;;;16.35;;
40459;SDS011;26164;51.138;16.952;2023-03-04T03:38:51;34.33;;;14.48;;
40459;SDS011;26164;51.138;16.952;2023-03-04T03:41:17;32.35;;;14.25;;
40459;SDS011;26164;51.138;16.952;2023-03-04T03:43:43;36.28;;;17.17;;
40459;SDS011;26164;51.138;16.952;2023-03-04T03:46:08;37.15;;;18.40;;
40459;SDS011;26164;51.138;16.952;2023-03-04T03:48:34;33.75;;;15.73;;
40459;SDS011;26164;51.138;16.952;2023-03-04T03:51:00;37.05;;;16.48;;
40459;SDS011;26164;51.138;16.952;2023-03-04T03:53:26;32.20;;;16.08;;
40459;SDS011;26164;51.138;16.952;2023-03-04T03:55:52;32.45;;;15.13;;
40459;SDS011;26164;51.138;16.952;2023-03-04T03:58:18;41.72;;;19.95;;
40459;SDS011;26164;51.138;16.952;2023-03-04T04:00:43;30.83;;;15.20;;
40459;SDS011;26164;51.138;16.952;2023-03-04T04:03:10;44.25;;;20.35;;
40459;SDS011;26164;51.138;16.952;2023-03-04T04:05:39;45.20;;;20.40;;
40459;SDS011;26164;51.138;16.952;2023-03-04T04:08:06;39.60;;;19.83;;
40459;SDS011;26164;51.138;16.952;2023-03-04T04:10:32;41.92;;;19.00;;
40459;SDS011;26164;51.138;16.952;2023-03-04T04:12:58;43.50;;;19.23;;
40459;SDS011;26164;51.138;16.952;2023-03-04T04:15:23;48.92;;;23.75;;
40459;SDS011;26164;51.138;16.952;2023-03-04T04:17:49;48.72;;;25.15;;
40459;SDS011;26164;51.138;16.952;2023-03-04T04:20:15;46.08;;;23.17;;
40459;SDS011;26164;51.138;16.952;2023-03-04T04:22:41;42.70;;;21.17;;
40459;SDS011;26164;51.138;16.952;2023-03-04T04:25:07;46.50;;;21.33;;
40459;SDS011;26164;51.138;16.952;2023-03-04T04:27:35;39.72;;;19.80;;
40459;SDS011;26164;51.138;16.952;2023-03-04T04:30:01;39.28;;;19.80;;
40459;SDS011;26164;51.138;16.952;2023-03-04T04:32:27;41.17;;;20.40;;
40459;SDS011;26164;51.138;16.952;2023-03-04T04:34:52;38.75;;;19.77;;
40459;SDS011;26164;51.138;16.952;2023-03-04T04:37:18;43.10;;;23.50;;
40459;SDS011;26164;51.138;16.952;2023-03-04T04:39:44;41.05;;;20.92;;
40459;SDS011;26164;51.138;16.952;2023-03-04T04:42:10;36.13;;;17.33;;
40459;SDS011;26164;51.138;16.952;2023-03-04T04:44:35;38.72;;;19.27;;
40459;SDS011;26164;51.138;16.952;2023-03-04T04:47:03;44.28;;;22.98;;
40459;SDS011;26164;51.138;16.952;2023-03-04T04:49:31;39.83;;;21.23;;
40459;SDS011;26164;51.138;16.952;2023-03-04T04:51:57;39.80;;;19.23;;
40459;SDS011;26164;51.138;16.952;2023-03-04T04:54:23;37.83;;;19.50;;
40459;SDS011;26164;51.138;16.952;2023-03-04T04:56:50;38.25;;;19.40;;
40459;SDS011;26164;51.138;16.952;2023-03-04T04:59:16;31.30;;;16.90;;
40459;SDS011;26164;51.138;16.952;2023-03-04T05:01:42;28.90;;;13.38;;
40459;SDS011;26164;51.138;16.952;2023-03-04T05:04:07;31.80;;;16.65;;
40459;SDS011;26164;51.138;16.952;2023-03-04T05:06:33;31.25;;;15.35;;
40459;SDS011;26164;51.138;16.952;2023-03-04T05:08:59;30.70;;;16.95;;
40459;SDS011;26164;51.138;16.952;2023-03-04T05:11:26;32.60;;;15.68;;
40459;SDS011;26164;51.138;16.952;2023-03-04T05:13:52;32.95;;;17.00;;
40459;SDS011;26164;51.138;16.952;2023-03-04T05:16:18;30.05;;;14.15;;
40459;SDS011;26164;51.138;16.952;2023-03-04T05:18:44;33.97;;;16.63;;
40459;SDS011;26164;51.138;16.952;2023-03-04T05:21:10;35.90;;;18.40;;
40459;SDS011;26164;51.138;16.952;2023-03-04T05:23:37;24.23;;;12.90;;
40459;SDS011;26164;51.138;16.952;2023-03-04T05:26:07;34.85;;;16.30;;
40459;SDS011;26164;51.138;16.952;2023-03-04T05:28:34;30.35;;;15.52;;
40459;SDS011;26164;51.138;16.952;2023-03-04T05:31:00;28.83;;;14.90;;
40459;SDS011;26164;51.138;16.952;2023-03-04T05:33:26;29.73;;;16.13;;
40459;SDS011;26164;51.138;16.952;2023-03-04T05:35:53;29.10;;;15.57;;
40459;SDS011;26164;51.138;16.952;2023-03-04T05:38:19;31.48;;;16.60;;
40459;SDS011;26164;51.138;16.952;2023-03-04T05:40:47;34.83;;;22.00;;
40459;SDS011;26164;51.138;16.952;2023-03-04T05:43:13;36.50;;;18.23;;
40459;SDS011;26164;51.138;16.952;2023-03-04T05:45:40;28.50;;;15.88;;
40459;SDS011;26164;51.138;16.952;2023-03-04T05:48:06;32.85;;;13.95;;
40459;SDS011;26164;51.138;16.952;2023-03-04T05:50:33;36.75;;;17.00;;
40459;SDS011;26164;51.138;16.952;2023-03-04T05:53:00;39.83;;;21.23;;
40459;SDS011;26164;51.138;16.952;2023-03-04T05:55:26;34.35;;;17.00;;
40459;SDS011;26164;51.138;16.952;2023-03-04T05:57:56;38.65;;;17.33;;
40459;SDS011;26164;51.138;16.952;2023-03-04T06:00:25;37.53;;;20.00;;
40459;SDS011;26164;51.138;16.952;2023-03-04T06:02:51;39.20;;;18.98;;
40459;SDS011;26164;51.138;16.952;2023-03-04T06:05:18;36.97;;;18.48;;
40459;SDS011;26164;51.138;16.952;2023-03-04T06:07:44;39.90;;;18.75;;
40459;SDS011;26164;51.138;16.952;2023-03-04T06:10:13;33.10;;;17.02;;
40459;SDS011;26164;51.138;16.952;2023-03-04T06:12:44;37.35;;;20.40;;
40459;SDS011;26164;51.138;16.952;2023-03-04T06:15:11;39.13;;;17.73;;
40459;SDS011;26164;51.138;16.952;2023-03-04T06:17:40;34.20;;;18.65;;
40459;SDS011;26164;51.138;16.952;2023-03-04T06:20:07;39.17;;;18.25;;
40459;SDS011;26164;51.138;16.952;2023-03-04T06:22:35;37.92;;;18.85;;
40459;SDS011;26164;51.138;16.952;2023-03-04T06:25:02;42.75;;;18.77;;
40459;SDS011;26164;51.138;16.952;2023-03-04T06:27:49;33.75;;;17.42;;
40459;SDS011;26164;51.138;16.952;2023-03-04T06:30:15;35.60;;;20.63;;
40459;SDS011;26164;51.138;16.952;2023-03-04T06:32:50;32.58;;;17.45;;
40459;SDS011;26164;51.138;16.952;2023-03-04T06:35:22;35.28;;;17.67;;
40459;SDS011;26164;51.138;16.952;2023-03-04T06:37:52;29.95;;;14.32;;
40459;SDS011;26164;51.138;16.952;2023-03-04T06:40:19;38.00;;;24.20;;
40459;SDS011;26164;51.138;16.952;2023-03-04T06:42:46;27.33;;;14.80;;
40459;SDS011;26164;51.138;16.952;2023-03-04T06:45:13;30.83;;;16.80;;
40459;SDS011;26164;51.138;16.952;2023-03-04T06:47:39;33.08;;;16.90;;
40459;SDS011;26164;51.138;16.952;2023-03-04T06:50:05;36.78;;;16.27;;
40459;SDS011;26164;51.138;16.952;2023-03-04T06:52:31;27.83;;;15.25;;
40459;SDS011;26164;51.138;16.952;2023-03-04T06:54:57;24.80;;;14.00;;
40459;SDS011;26164;51.138;16.952;2023-03-04T06:57:23;24.30;;;15.38;;
40459;SDS011;26164;51.138;16.952;2023-03-04T06:59:49;30.25;;;14.27;;
40459;SDS011;26164;51.138;16.952;2023-03-04T07:02:15;24.45;;;14.63;;
40459;SDS011;26164;51.138;16.952;2023-03-04T07:04:41;25.25;;;12.98;;
40459;SDS011;26164;51.138;16.952;2023-03-04T07:07:06;25.65;;;13.52;;
40459;SDS011;26164;51.138;16.952;2023-03-04T07:09:32;29.30;;;13.68;;
40459;SDS011;26164;51.138;16.952;2023-03-04T07:11:58;23.77;;;11.35;;
40459;SDS011;26164;51.138;16.952;2023-03-04T07:14:25;24.55;;;13.50;;
40459;SDS011;26164;51.138;16.952;2023-03-04T07:16:53;19.70;;;9.55;;
40459;SDS011;26164;51.138;16.952;2023-03-04T07:19:20;26.40;;;13.25;;
40459;SDS011;26164;51.138;16.952;2023-03-04T07:21:46;26.05;;;14.07;;
40459;SDS011;26164;51.138;16.952;2023-03-04T07:24:13;27.63;;;14.23;;
40459;SDS011;26164;51.138;16.952;2023-03-04T07:26:39;28.55;;;14.18;;
40459;SDS011;26164;51.138;16.952;2023-03-04T07:29:05;24.60;;;13.13;;
40459;SDS011;26164;51.138;16.952;2023-03-04T07:31:32;19.33;;;11.00;;
40459;SDS011;26164;51.138;16.952;2023-03-04T07:34:03;32.35;;;13.52;;
40459;SDS011;26164;51.138;16.952;2023-03-04T07:36:30;29.88;;;16.17;;
40459;SDS011;26164;51.138;16.952;2023-03-04T07:38:57;30.67;;;16.70;;
40459;SDS011;26164;51.138;16.952;2023-03-04T07:41:39;39.13;;;14.90;;
40459;SDS011;26164;51.138;16.952;2023-03-04T07:44:29;29.75;;;15.43;;
40459;SDS011;26164;51.138;16.952;2023-03-04T07:46:55;31.00;;;16.85;;
40459;SDS011;26164;51.138;16.952;2023-03-04T07:49:27;32.40;;;17.83;;
40459;SDS011;26164;51.138;16.952;2023-03-04T07:52:14;34.50;;;15.95;;
40459;SDS011;26164;51.138;16.952;2023-03-04T07:54:50;23.48;;;11.10;;
40459;SDS011;26164;51.138;16.952;2023-03-04T07:57:27;36.65;;;17.02;;
40459;SDS011;26164;51.138;16.952;2023-03-04T08:00:12;42.90;;;14.35;;
40459;SDS011;26164;51.138;16.952;2023-03-04T08:02:47;33.03;;;16.90;;
40459;SDS011;26164;51.138;16.952;2023-03-04T08:05:15;33.90;;;14.73;;
40459;SDS011;26164;51.138;16.952;2023-03-04T08:07:44;37.83;;;16.30;;
40459;SDS011;26164;51.138;16.952;2023-03-04T08:10:46;34.60;;;16.33;;
40459;SDS011;26164;51.138;16.952;2023-03-04T08:13:24;31.00;;;14.50;;
40459;SDS011;26164;51.138;16.952;2023-03-04T08:15:51;37.38;;;18.75;;
40459;SDS011;26164;51.138;16.952;2023-03-04T08:18:19;43.28;;;20.88;;
40459;SDS011;26164;51.138;16.952;2023-03-04T08:20:46;36.90;;;19.17;;
40459;SDS011;26164;51.138;16.952;2023-03-04T08:23:29;37.45;;;19.98;;
40459;SDS011;26164;51.138;16.952;2023-03-04T08:26:22;43.28;;;20.73;;
40459;SDS011;26164;51.138;16.952;2023-03-04T08:29:21;33.92;;;15.55;;
40459;SDS011;26164;51.138;16.952;2023-03-04T08:32:29;38.28;;;16.45;;
40459;SDS011;26164;51.138;16.952;2023-03-04T08:34:57;43.05;;;21.38;;
40459;SDS011;26164;51.138;16.952;2023-03-04T08:37:28;31.75;;;15.23;;
40459;SDS011;26164;51.138;16.952;2023-03-04T08:39:54;32.15;;;14.57;;
40459;SDS011;26164;51.138;16.952;2023-03-04T08:42:20;38.88;;;17.90;;
40459;SDS011;26164;51.138;16.952;2023-03-04T08:44:48;32.85;;;17.33;;
40459;SDS011;26164;51.138;16.952;2023-03-04T08:47:14;34.67;;;15.75;;
40459;SDS011;26164;51.138;16.952;2023-03-04T08:49:40;31.38;;;13.57;;
40459;SDS011;26164;51.138;16.952;2023-03-04T08:52:06;27.02;;;12.35;;
40459;SDS011;26164;51.138;16.952;2023-03-04T08:54:32;25.35;;;13.13;;
40459;SDS011;26164;51.138;16.952;2023-03-04T08:56:58;27.17;;;12.60;;
40459;SDS011;26164;51.138;16.952;2023-03-04T08:59:24;26.60;;;13.35;;
40459;SDS011;26164;51.138;16.952;2023-03-04T09:01:52;31.85;;;12.93;;
40459;SDS011;26164;51.138;16.952;2023-03-04T09:04:18;24.77;;;13.05;;
40459;SDS011;26164;51.138;16.952;2023-03-04T09:06:44;30.83;;;12.95;;
40459;SDS011;26164;51.138;16.952;2023-03-04T09:09:10;29.42;;;13.35;;
40459;SDS011;26164;51.138;16.952;2023-03-04T09:11:36;28.42;;;12.85;;
40459;SDS011;26164;51.138;16.952;2023-03-04T09:14:02;29.58;;;13.55;;
40459;SDS011;26164;51.138;16.952;2023-03-04T09:16:28;20.98;;;8.85;;
40459;SDS011;26164;51.138;16.952;2023-03-04T09:18:53;21.38;;;11.10;;
40459;SDS011;26164;51.138;16.952;2023-03-04T09:21:19;28.90;;;12.38;;
40459;SDS011;26164;51.138;16.952;2023-03-04T09:23:45;24.70;;;10.43;;
40459;SDS011;26164;51.138;16.952;2023-03-04T09:28:44;26.08;;;12.13;;
40459;SDS011;26164;51.138;16.952;2023-03-04T09:31:11;21.25;;;11.20;;
40459;SDS011;26164;51.138;16.952;2023-03-04T09:33:38;16.60;;;8.85;;
40459;SDS011;26164;51.138;16.952;2023-03-04T09:36:06;21.95;;;10.90;;
40459;SDS011;26164;51.138;16.952;2023-03-04T09:38:37;29.27;;;13.05;;
40459;SDS011;26164;51.138;16.952;2023-03-04T09:43:49;21.60;;;10.38;;
40459;SDS011;26164;51.138;16.952;2023-03-04T09:46:33;19.17;;;11.13;;
40459;SDS011;26164;51.138;16.952;2023-03-04T09:49:03;25.33;;;11.95;;
40459;SDS011;26164;51.138;16.952;2023-03-04T09:51:36;22.83;;;10.63;;
40459;SDS011;26164;51.138;16.952;2023-03-04T09:54:31;23.75;;;10.35;;
40459;SDS011;26164;51.138;16.952;2023-03-04T10:04:46;19.98;;;9.95;;
40459;SDS011;26164;51.138;16.952;2023-03-04T10:07:39;28.70;;;13.35;;
40459;SDS011;26164;51.138;16.952;2023-03-04T10:10:46;30.92;;;13.15;;
40459;SDS011;26164;51.138;16.952;2023-03-04T10:34:45;26.80;;;13.93;;
40459;SDS011;26164;51.138;16.952;2023-03-04T10:41:00;22.63;;;12.48;;
40459;SDS011;26164;51.138;16.952;2023-03-04T10:43:59;22.90;;;12.47;;
40459;SDS011;26164;51.138;16.952;2023-03-04T11:36:28;17.13;;;9.57;;
40459;SDS011;26164;51.138;16.952;2023-03-04T11:40:03;17.48;;;8.63;;
40459;SDS011;26164;51.138;16.952;2023-03-04T11:43:03;14.55;;;8.25;;
40459;SDS011;26164;51.138;16.952;2023-03-04T13:12:01;19.65;;;11.02;;
40459;SDS011;26164;51.138;16.952;2023-03-04T13:15:31;18.73;;;9.80;;
40459;SDS011;26164;51.138;16.952;2023-03-04T13:17:43;17.42;;;9.68;;
40459;SDS011;26164;51.138;16.952;2023-03-04T13:23:27;22.90;;;10.65;;
40459;SDS011;26164;51.138;16.952;2023-03-04T13:32:52;27.10;;;11.38;;
40459;SDS011;26164;51.138;16.952;2023-03-04T13:35:59;20.65;;;10.65;;
40459;SDS011;26164;51.138;16.952;2023-03-04T13:38:35;20.38;;;10.27;;
40459;SDS011;26164;51.138;16.952;2023-03-04T13:41:49;18.88;;;10.63;;
40459;SDS011;26164;51.138;16.952;2023-03-04T13:47:26;20.50;;;10.02;;
40459;SDS011;26164;51.138;16.952;2023-03-04T13:50:28;20.52;;;11.02;;
40459;SDS011;26164;51.138;16.952;2023-03-04T13:53:20;23.98;;;12.65;;
40459;SDS011;26164;51.138;16.952;2023-03-04T13:56:03;18.58;;;10.18;;
40459;SDS011;26164;51.138;16.952;2023-03-04T13:58:51;19.02;;;9.45;;
40459;SDS011;26164;51.138;16.952;2023-03-04T14:01:31;20.55;;;10.15;;
40459;SDS011;26164;51.138;16.952;2023-03-04T14:07:25;14.77;;;8.20;;
40459;SDS011;26164;51.138;16.952;2023-03-04T14:09:57;13.00;;;7.28;;
40459;SDS011;26164;51.138;16.952;2023-03-04T14:12:28;15.27;;;7.68;;
40459;SDS011;26164;51.138;16.952;2023-03-04T14:15:23;16.30;;;7.47;;
40459;SDS011;26164;51.138;16.952;2023-03-04T14:18:03;13.85;;;6.95;;
40459;SDS011;26164;51.138;16.952;2023-03-04T14:21:01;13.18;;;6.28;;
40459;SDS011;26164;51.138;16.952;2023-03-04T14:23:34;13.18;;;6.75;;
40459;SDS011;26164;51.138;16.952;2023-03-04T14:26:14;14.38;;;6.07;;
40459;SDS011;26164;51.138;16.952;2023-03-04T14:28:47;14.45;;;7.68;;
40459;SDS011;26164;51.138;16.952;2023-03-04T14:31:22;11.00;;;5.88;;
40459;SDS011;26164;51.138;16.952;2023-03-04T14:34:04;12.73;;;7.17;;
40459;SDS011;26164;51.138;16.952;2023-03-04T14:36:34;13.77;;;7.72;;
40459;SDS011;26164;51.138;16.952;2023-03-04T14:39:03;14.75;;;7.32;;
40459;SDS011;26164;51.138;16.952;2023-03-04T14:41:38;16.05;;;7.68;;
40459;SDS011;26164;51.138;16.952;2023-03-04T14:46:56;13.07;;;7.13;;
40459;SDS011;26164;51.138;16.952;2023-03-04T14:49:34;16.90;;;8.18;;
40459;SDS011;26164;51.138;16.952;2023-03-04T14:52:06;18.60;;;8.77;;
40459;SDS011;26164;51.138;16.952;2023-03-04T14:54:58;18.52;;;9.00;;
40459;SDS011;26164;51.138;16.952;2023-03-04T14:57:32;14.40;;;7.85;;
40459;SDS011;26164;51.138;16.952;2023-03-04T15:02:53;12.55;;;7.43;;
40459;SDS011;26164;51.138;16.952;2023-03-04T15:05:28;18.13;;;9.77;;
40459;SDS011;26164;51.138;16.952;2023-03-04T15:08:04;13.68;;;7.50;;
40459;SDS011;26164;51.138;16.952;2023-03-04T15:10:56;16.60;;;7.93;;
40459;SDS011;26164;51.138;16.952;2023-03-04T15:13:47;12.82;;;7.05;;
40459;SDS011;26164;51.138;16.952;2023-03-04T15:16:26;15.82;;;8.48;;
40459;SDS011;26164;51.138;16.952;2023-03-04T15:19:34;18.27;;;8.40;;
40459;SDS011;26164;51.138;16.952;2023-03-04T15:22:07;9.80;;;4.55;;
40459;SDS011;26164;51.138;16.952;2023-03-04T15:24:34;14.60;;;7.57;;
40459;SDS011;26164;51.138;16.952;2023-03-04T15:27:01;14.02;;;5.82;;
40459;SDS011;26164;51.138;16.952;2023-03-04T15:29:33;10.88;;;4.47;;
40459;SDS011;26164;51.138;16.952;2023-03-04T15:31:59;9.25;;;3.78;;
40459;SDS011;26164;51.138;16.952;2023-03-04T15:34:27;9.43;;;3.45;;
40459;SDS011;26164;51.138;16.952;2023-03-04T15:36:53;8.13;;;3.33;;
40459;SDS011;26164;51.138;16.952;2023-03-04T15:39:22;9.45;;;3.50;;
40459;SDS011;26164;51.138;16.952;2023-03-04T15:41:51;11.27;;;4.32;;
40459;SDS011;26164;51.138;16.952;2023-03-04T15:44:17;16.35;;;7.18;;
40459;SDS011;26164;51.138;16.952;2023-03-04T15:46:48;17.05;;;6.57;;
40459;SDS011;26164;51.138;16.952;2023-03-04T15:49:16;14.30;;;4.47;;
40459;SDS011;26164;51.138;16.952;2023-03-04T15:51:41;14.32;;;5.20;;
40459;SDS011;26164;51.138;16.952;2023-03-04T15:54:09;14.73;;;5.07;;
40459;SDS011;26164;51.138;16.952;2023-03-04T15:56:42;12.52;;;4.90;;
40459;SDS011;26164;51.138;16.952;2023-03-04T15:59:13;12.57;;;4.97;;
40459;SDS011;26164;51.138;16.952;2023-03-04T16:01:43;13.98;;;5.15;;
40459;SDS011;26164;51.138;16.952;2023-03-04T16:04:12;15.23;;;5.28;;
40459;SDS011;26164;51.138;16.952;2023-03-04T16:06:47;11.57;;;4.93;;
40459;SDS011;26164;51.138;16.952;2023-03-04T16:09:27;14.45;;;4.93;;
40459;SDS011;26164;51.138;16.952;2023-03-04T16:11:52;14.10;;;5.43;;
40459;SDS011;26164;51.138;16.952;2023-03-04T16:14:27;10.75;;;4.55;;
40459;SDS011;26164;51.138;16.952;2023-03-04T16:16:55;12.63;;;5.13;;
40459;SDS011;26164;51.138;16.952;2023-03-04T16:19:23;13.55;;;5.47;;
40459;SDS011;26164;51.138;16.952;2023-03-04T16:21:52;11.55;;;4.65;;
40459;SDS011;26164;51.138;16.952;2023-03-04T16:24:30;14.55;;;5.63;;
40459;SDS011;26164;51.138;16.952;2023-03-04T16:27:00;12.63;;;5.80;;
40459;SDS011;26164;51.138;16.952;2023-03-04T16:29:31;17.65;;;6.72;;
40459;SDS011;26164;51.138;16.952;2023-03-04T16:31:58;17.13;;;6.45;;
40459;SDS011;26164;51.138;16.952;2023-03-04T16:34:31;19.45;;;7.07;;
40459;SDS011;26164;51.138;16.952;2023-03-04T16:37:01;24.13;;;6.50;;
40459;SDS011;26164;51.138;16.952;2023-03-04T16:39:32;17.35;;;7.60;;
40459;SDS011;26164;51.138;16.952;2023-03-04T16:42:00;18.30;;;7.88;;
40459;SDS011;26164;51.138;16.952;2023-03-04T16:44:31;14.57;;;7.38;;
40459;SDS011;26164;51.138;16.952;2023-03-04T16:47:02;17.90;;;8.18;;
40459;SDS011;26164;51.138;16.952;2023-03-04T16:49:34;19.20;;;8.20;;
40459;SDS011;26164;51.138;16.952;2023-03-04T16:52:02;18.08;;;7.10;;
40459;SDS011;26164;51.138;16.952;2023-03-04T16:55:01;17.33;;;7.15;;
40459;SDS011;26164;51.138;16.952;2023-03-04T17:00:29;19.58;;;8.10;;
40459;SDS011;26164;51.138;16.952;2023-03-04T17:06:04;21.05;;;9.18;;
40459;SDS011;26164;51.138;16.952;2023-03-04T17:11:37;21.13;;;7.85;;
40459;SDS011;26164;51.138;16.952;2023-03-04T17:14:42;18.60;;;8.10;;
40459;SDS011;26164;51.138;16.952;2023-03-04T17:19:59;22.05;;;9.45;;
40459;SDS011;26164;51.138;16.952;2023-03-04T17:25:55;18.90;;;8.98;;
40459;SDS011;26164;51.138;16.952;2023-03-04T17:28:39;20.70;;;8.73;;
40459;SDS011;26164;51.138;16.952;2023-03-04T17:31:51;19.95;;;8.23;;
40459;SDS011;26164;51.138;16.952;2023-03-04T17:34:25;15.85;;;8.43;;
40459;SDS011;26164;51.138;16.952;2023-03-04T17:36:53;19.35;;;8.35;;
40459;SDS011;26164;51.138;16.952;2023-03-04T17:40:00;17.15;;;8.93;;
40459;SDS011;26164;51.138;16.952;2023-03-04T17:42:54;16.95;;;8.27;;
40459;SDS011;26164;51.138;16.952;2023-03-04T17:45:22;20.92;;;8.77;;
40459;SDS011;26164;51.138;16.952;2023-03-04T17:47:48;21.00;;;8.98;;
40459;SDS011;26164;51.138;16.952;2023-03-04T17:50:16;23.60;;;9.45;;
40459;SDS011;26164;51.138;16.952;2023-03-04T17:52:59;21.65;;;9.77;;
40459;SDS011;26164;51.138;16.952;2023-03-04T17:55:26;21.27;;;9.90;;
40459;SDS011;26164;51.138;16.952;2023-03-04T17:57:55;15.90;;;7.25;;
40459;SDS011;26164;51.138;16.952;2023-03-04T18:00:39;23.83;;;10.52;;
40459;SDS011;26164;51.138;16.952;2023-03-04T18:09:32;23.42;;;8.73;;
40459;SDS011;26164;51.138;16.952;2023-03-04T18:14:53;17.70;;;7.75;;
40459;SDS011;26164;51.138;16.952;2023-03-04T18:17:27;16.75;;;6.50;;
40459;SDS011;26164;51.138;16.952;2023-03-04T18:31:33;17.42;;;6.05;;
40459;SDS011;26164;51.138;16.952;2023-03-04T18:34:08;20.33;;;6.35;;